createdAt,value
2018-05-31T00:00:29.536Z,21.03
2018-05-31T00:02:59.058Z,24.80
2018-05-31T00:05:27.725Z,23.63
2018-05-31T00:07:55.802Z,27.30
2018-05-31T00:10:23.862Z,24.70
2018-05-31T00:12:51.849Z,21.27
2018-05-31T00:15:19.822Z,24.07
2018-05-31T00:17:47.801Z,23.87
2018-05-31T00:20:16.568Z,22.30
2018-05-31T00:22:46.173Z,25.30
2018-05-31T00:25:15.695Z,26.67
2018-05-31T00:27:43.710Z,24.37
2018-05-31T00:30:11.674Z,24.33
2018-05-31T00:32:39.687Z,23.30
2018-05-31T00:35:07.661Z,24.87
2018-05-31T00:37:36.410Z,26.43
2018-05-31T00:40:04.430Z,36.97
2018-05-31T00:42:32.377Z,24.23
2018-05-31T00:45:01.252Z,23.07
2018-05-31T00:47:29.381Z,28.70
2018-05-31T00:49:57.361Z,26.27
2018-05-31T00:52:25.327Z,36.13
2018-05-31T00:54:53.994Z,31.87
2018-05-31T00:57:21.983Z,30.40
2018-05-31T00:59:49.966Z,28.03
2018-05-31T01:02:18.045Z,29.17
2018-05-31T01:04:46.055Z,33.27
2018-05-31T01:07:14.793Z,30.50
2018-05-31T01:09:42.762Z,33.00
2018-05-31T01:12:10.756Z,33.23
2018-05-31T01:14:38.808Z,31.97
2018-05-31T01:17:06.821Z,36.20
2018-05-31T01:19:34.798Z,39.53
2018-05-31T01:22:04.451Z,39.77
2018-05-31T01:24:32.517Z,44.27
2018-05-31T01:27:00.597Z,40.07
2018-05-31T01:29:28.653Z,38.23
2018-05-31T01:31:56.782Z,46.20
2018-05-31T01:34:25.501Z,41.77
2018-05-31T01:36:54.457Z,35.57
2018-05-31T01:39:22.469Z,44.87
2018-05-31T01:41:50.447Z,43.73
2018-05-31T01:44:18.458Z,43.60
2018-05-31T01:46:47.193Z,42.23
2018-05-31T01:49:15.274Z,50.63
2018-05-31T01:51:44.749Z,49.73
2018-05-31T01:54:12.732Z,48.70
2018-05-31T01:56:42.237Z,43.37
2018-05-31T01:59:10.201Z,48.80
2018-05-31T02:01:38.199Z,54.03
2018-05-31T02:04:06.362Z,55.70
2018-05-31T02:06:34.391Z,47.30
2018-05-31T02:09:02.393Z,52.80
2018-05-31T02:11:30.384Z,44.07
2018-05-31T02:13:59.168Z,53.57
2018-05-31T02:16:27.905Z,49.30
2018-05-31T02:18:57.426Z,51.03
2018-05-31T02:21:25.409Z,48.67
2018-05-31T02:23:53.463Z,47.77
2018-05-31T02:26:21.437Z,46.90
2018-05-31T02:28:49.521Z,45.77
2018-05-31T02:31:17.588Z,46.73
2018-05-31T02:33:45.627Z,57.33
2018-05-31T02:36:13.622Z,47.43
2018-05-31T02:38:41.601Z,47.10
2018-05-31T02:41:09.580Z,43.67
2018-05-31T02:43:37.649Z,42.33
2018-05-31T02:46:06.541Z,48.27
2018-05-31T02:48:35.289Z,54.40
2018-05-31T02:51:03.253Z,60.00
2018-05-31T02:53:31.358Z,59.20
2018-05-31T02:55:59.329Z,46.30
2018-05-31T02:58:28.069Z,51.60
2018-05-31T03:00:57.711Z,57.00
2018-05-31T03:03:25.668Z,51.50
2018-05-31T03:05:54.487Z,67.77
2018-05-31T03:08:22.457Z,61.77
2018-05-31T03:10:50.513Z,57.70
2018-05-31T03:13:19.379Z,56.13
2018-05-31T03:15:47.367Z,59.50
2018-05-31T03:18:16.137Z,70.90
2018-05-31T03:20:44.114Z,68.27
2018-05-31T03:23:12.870Z,63.80
2018-05-31T03:25:40.859Z,62.57
2018-05-31T03:28:09.638Z,62.77
2018-05-31T03:30:37.617Z,68.43
2018-05-31T03:33:06.395Z,82.30
2018-05-31T03:35:34.397Z,68.83
2018-05-31T03:38:02.365Z,76.47
2018-05-31T03:40:30.338Z,74.00
2018-05-31T03:42:58.320Z,70.70
2018-05-31T03:45:26.301Z,72.30
2018-05-31T03:47:54.609Z,73.07
2018-05-31T03:50:22.581Z,70.23
2018-05-31T03:52:51.375Z,66.33
2018-05-31T03:55:19.348Z,73.23
2018-05-31T03:57:48.127Z,64.50
2018-05-31T04:00:16.895Z,63.80
2018-05-31T04:02:44.986Z,67.07
2018-05-31T04:05:13.764Z,66.13
2018-05-31T04:07:41.746Z,78.03
2018-05-31T04:10:10.621Z,71.83
2018-05-31T04:12:39.405Z,57.67
2018-05-31T04:15:07.471Z,62.47
2018-05-31T04:17:36.971Z,64.73
2018-05-31T04:20:05.068Z,71.70
2018-05-31T04:22:33.841Z,72.57
2018-05-31T04:25:02.582Z,78.37
2018-05-31T04:27:31.390Z,72.47
2018-05-31T04:29:59.489Z,74.17
2018-05-31T04:32:28.247Z,74.90
2018-05-31T04:34:57.864Z,77.30
2018-05-31T04:37:26.646Z,79.20
2018-05-31T04:39:54.917Z,83.53
2018-05-31T04:42:24.441Z,80.33
2018-05-31T04:44:52.503Z,85.13
2018-05-31T04:47:20.482Z,72.80
2018-05-31T04:49:49.247Z,72.63
2018-05-31T04:52:18.738Z,72.43
2018-05-31T04:54:46.718Z,76.37
2018-05-31T04:57:14.825Z,71.53
2018-05-31T04:59:43.550Z,59.47
2018-05-31T05:02:11.653Z,60.10
2018-05-31T05:04:39.640Z,59.73
2018-05-31T05:07:08.503Z,60.50
2018-05-31T05:09:36.565Z,56.23
2018-05-31T05:12:04.576Z,56.10
2018-05-31T05:14:33.313Z,51.87
2018-05-31T05:17:01.325Z,55.07
2018-05-31T05:19:29.297Z,50.30
2018-05-31T05:21:58.072Z,52.50
2018-05-31T05:24:26.052Z,55.07
2018-05-31T05:26:54.906Z,56.03
2018-05-31T05:29:22.917Z,54.63
2018-05-31T05:31:50.892Z,48.33
2018-05-31T05:34:18.934Z,47.73
2018-05-31T05:36:47.694Z,51.60
2018-05-31T05:39:15.774Z,47.17
2018-05-31T05:41:43.855Z,45.07
2018-05-31T05:44:11.907Z,45.53
2018-05-31T05:46:39.977Z,42.67
2018-05-31T05:49:07.973Z,48.67
2018-05-31T05:51:36.707Z,38.53
2018-05-31T05:54:04.758Z,39.33
2018-05-31T05:56:32.850Z,33.80
2018-05-31T05:59:00.863Z,44.33
2018-05-31T06:01:28.905Z,40.47
2018-05-31T06:03:56.898Z,39.50
2018-05-31T06:06:25.668Z,43.23
2018-05-31T06:08:53.735Z,41.50
2018-05-31T06:11:21.755Z,48.10
2018-05-31T06:13:49.876Z,43.07
2018-05-31T06:16:17.937Z,39.27
2018-05-31T06:18:46.034Z,36.47
2018-05-31T06:21:14.015Z,42.90
2018-05-31T06:23:42.895Z,42.60
2018-05-31T06:26:11.757Z,43.57
2018-05-31T06:28:39.762Z,39.63
2018-05-31T06:31:07.751Z,40.30
2018-05-31T06:33:35.782Z,39.57
2018-05-31T06:36:03.745Z,48.40
2018-05-31T06:38:32.538Z,38.77
2018-05-31T06:41:01.322Z,38.77
2018-05-31T06:43:29.365Z,38.10
2018-05-31T06:45:57.437Z,44.30
2018-05-31T06:48:25.531Z,36.70
2018-05-31T06:50:53.514Z,42.03
2018-05-31T06:53:22.389Z,38.63
2018-05-31T06:55:51.121Z,43.53
2018-05-31T06:58:19.090Z,45.30
2018-05-31T07:00:47.244Z,38.73
2018-05-31T07:03:16.829Z,46.30
2018-05-31T07:05:45.581Z,42.77
2018-05-31T07:08:13.584Z,41.37
2018-05-31T07:10:42.350Z,44.03
2018-05-31T07:13:10.329Z,40.87
2018-05-31T07:15:39.080Z,39.40
2018-05-31T07:18:07.173Z,43.63
2018-05-31T07:20:35.158Z,40.00
2018-05-31T07:23:04.139Z,44.57
2018-05-31T07:25:32.105Z,50.63
2018-05-31T07:28:00.200Z,41.00
2018-05-31T07:30:29.051Z,38.37
2018-05-31T07:32:57.122Z,36.87
2018-05-31T07:35:25.114Z,40.13
2018-05-31T07:37:53.881Z,37.80
2018-05-31T07:40:21.853Z,36.87
2018-05-31T07:42:49.849Z,36.20
2018-05-31T07:45:17.885Z,37.47
2018-05-31T07:47:45.890Z,33.20
2018-05-31T07:50:13.916Z,39.50
2018-05-31T07:52:42.001Z,33.37
2018-05-31T07:55:10.796Z,30.90
2018-05-31T07:57:39.550Z,27.77
2018-05-31T08:00:07.527Z,31.53
2018-05-31T08:02:35.501Z,31.83
2018-05-31T08:05:03.498Z,30.60
2018-05-31T08:07:32.269Z,29.80
2018-05-31T08:10:00.226Z,26.67
2018-05-31T08:12:29.717Z,34.97
2018-05-31T08:14:57.698Z,28.80
2018-05-31T08:17:25.805Z,30.27
2018-05-31T08:19:54.542Z,30.30
2018-05-31T08:22:22.629Z,29.23
2018-05-31T08:24:50.611Z,26.27
2018-05-31T08:27:19.597Z,31.40
2018-05-31T08:29:47.663Z,33.93
2018-05-31T08:32:15.711Z,28.10
2018-05-31T08:34:43.776Z,29.80
2018-05-31T08:37:11.750Z,21.50
2018-05-31T08:39:39.732Z,30.83
2018-05-31T08:42:08.567Z,27.90
2018-05-31T08:44:37.401Z,30.40
2018-05-31T08:47:05.414Z,24.30
2018-05-31T08:49:33.405Z,26.80
2018-05-31T08:52:01.435Z,36.93
2018-05-31T08:54:30.360Z,27.00
2018-05-31T08:56:58.338Z,34.27
2018-05-31T08:59:26.326Z,27.00
2018-05-31T09:01:54.331Z,25.30
2018-05-31T09:04:23.093Z,25.03
2018-05-31T09:06:51.088Z,24.90
2018-05-31T09:09:19.283Z,32.43
2018-05-31T09:11:48.941Z,28.40
2018-05-31T09:14:16.910Z,33.73
2018-05-31T09:16:44.991Z,29.60
2018-05-31T09:19:13.723Z,32.23
2018-05-31T09:21:41.930Z,33.10
2018-05-31T09:24:09.918Z,35.78
2018-05-31T09:26:38.650Z,44.23
2018-05-31T09:30:18.318Z,33.50
2018-05-31T09:32:46.469Z,43.57
2018-05-31T09:35:14.765Z,35.73
2018-05-31T09:37:43.029Z,36.10
2018-05-31T09:40:12.069Z,34.30
2018-05-31T09:42:41.142Z,31.17
2018-05-31T09:45:09.402Z,34.87
2018-05-31T09:47:38.617Z,34.90
2018-05-31T09:50:06.959Z,31.13
2018-05-31T09:52:35.238Z,29.90
2018-05-31T09:55:04.726Z,36.70
2018-05-31T09:57:33.162Z,36.97
2018-05-31T10:00:02.125Z,38.60
2018-05-31T10:02:30.503Z,36.70
2018-05-31T10:04:59.489Z,39.13
2018-05-31T10:07:28.481Z,36.93
2018-05-31T10:09:57.503Z,39.57
2018-05-31T10:12:25.741Z,33.80
2018-05-31T10:14:54.789Z,37.90
2018-05-31T10:17:23.194Z,40.23
2018-05-31T10:19:51.517Z,41.40
2018-05-31T10:22:19.733Z,44.70
2018-05-31T10:24:48.038Z,47.97
2018-05-31T10:27:17.954Z,35.93
2018-05-31T10:29:46.962Z,47.07
2018-05-31T10:32:15.915Z,37.53
2018-05-31T10:34:44.145Z,41.73
2018-05-31T10:37:12.463Z,39.97
2018-05-31T10:39:40.687Z,38.13
2018-05-31T10:42:09.001Z,35.37
2018-05-31T10:44:37.263Z,38.80
2018-05-31T10:47:05.486Z,42.97
2018-05-31T10:49:34.562Z,39.53
2018-05-31T10:52:03.577Z,41.60
2018-05-31T10:54:31.853Z,38.00
2018-05-31T10:57:00.070Z,37.20
2018-05-31T10:59:28.294Z,45.00
2018-05-31T11:01:56.562Z,38.90
2018-05-31T11:04:25.660Z,33.13
2018-05-31T11:06:54.641Z,41.37
2018-05-31T11:09:23.806Z,39.17
2018-05-31T11:11:52.025Z,32.20
2018-05-31T11:14:20.601Z,34.00
2018-05-31T11:16:49.607Z,38.90
2018-05-31T11:19:17.868Z,31.13
2018-05-31T11:21:46.895Z,34.07
2018-05-31T11:24:15.844Z,36.00
2018-05-31T11:26:44.841Z,35.10
2018-05-31T11:29:13.945Z,37.80
2018-05-31T11:31:42.165Z,35.77
2018-05-31T11:34:10.378Z,33.03
2018-05-31T11:36:39.481Z,30.03
2018-05-31T11:39:07.749Z,43.27
2018-05-31T11:41:36.764Z,32.60
2018-05-31T11:44:05.734Z,32.77
2018-05-31T11:46:34.011Z,35.53
2018-05-31T11:49:02.221Z,31.43
2018-05-31T11:51:30.477Z,26.63
2018-05-31T11:53:58.730Z,30.53
2018-05-31T11:56:26.983Z,34.00
2018-05-31T11:58:55.182Z,33.57
2018-05-31T12:01:23.413Z,31.33
2018-05-31T12:03:51.736Z,32.33
2018-05-31T12:06:19.957Z,33.27
2018-05-31T12:08:48.287Z,34.77
2018-05-31T12:11:16.502Z,39.93
2018-05-31T12:13:44.840Z,41.30
2018-05-31T12:16:13.054Z,40.40
2018-05-31T12:18:41.387Z,43.43
2018-05-31T12:21:09.607Z,42.83
2018-05-31T12:23:37.830Z,45.37
2018-05-31T12:26:06.053Z,41.23
2018-05-31T12:28:34.325Z,41.87
2018-05-31T12:31:02.561Z,43.43
2018-05-31T12:33:30.771Z,49.13
2018-05-31T12:35:59.000Z,41.93
2018-05-31T12:38:27.257Z,40.40
2018-05-31T12:40:56.250Z,40.13
2018-05-31T12:43:25.241Z,41.27
2018-05-31T12:45:54.335Z,35.40
2018-05-31T12:48:23.326Z,36.07
2018-05-31T12:50:52.333Z,34.03
2018-05-31T12:53:20.622Z,34.00
2018-05-31T12:55:48.839Z,43.73
2018-05-31T12:58:17.062Z,33.77
2018-05-31T13:00:45.293Z,37.63
2018-05-31T13:03:13.511Z,39.53
2018-05-31T13:05:41.774Z,37.60
2018-05-31T13:08:09.963Z,44.00
2018-05-31T13:10:38.179Z,40.73
2018-05-31T13:13:07.170Z,44.90
2018-05-31T13:15:35.474Z,42.20
2018-05-31T13:18:04.542Z,44.67
2018-05-31T13:20:32.737Z,40.77
2018-05-31T13:23:01.773Z,39.20
2018-05-31T13:25:30.001Z,41.13
2018-05-31T13:27:58.994Z,35.73
2018-05-31T13:30:28.110Z,36.17
2018-05-31T13:32:56.319Z,33.97
2018-05-31T13:35:24.637Z,43.20
2018-05-31T13:37:53.939Z,37.10
2018-05-31T13:40:22.918Z,36.07
2018-05-31T13:42:51.902Z,39.50
2018-05-31T13:45:20.167Z,37.40
2018-05-31T13:47:48.486Z,39.53
2018-05-31T13:50:17.562Z,35.40
2018-05-31T13:52:45.787Z,36.40
2018-05-31T13:55:14.014Z,45.37
2018-05-31T13:57:43.029Z,38.00
2018-05-31T14:00:11.235Z,36.00
2018-05-31T14:02:39.554Z,31.67
2018-05-31T14:05:08.558Z,34.30
2018-05-31T14:07:36.757Z,35.40
2018-05-31T14:10:04.995Z,33.43
2018-05-31T14:12:33.966Z,38.53
2018-05-31T14:15:02.957Z,33.20
2018-05-31T14:17:31.166Z,33.40
2018-05-31T14:19:59.403Z,30.23
2018-05-31T14:22:28.388Z,38.90
2018-05-31T14:24:57.374Z,31.93
2018-05-31T14:27:25.690Z,31.83
2018-05-31T14:29:54.658Z,29.40
2018-05-31T14:32:23.661Z,30.10
2018-05-31T14:34:51.951Z,28.70
2018-05-31T14:37:20.229Z,27.90
2018-05-31T14:39:48.446Z,27.83
2018-05-31T14:42:16.685Z,27.87
2018-05-31T14:44:44.910Z,29.03
2018-05-31T14:47:13.892Z,30.40
2018-05-31T14:49:42.197Z,24.30
2018-05-31T14:52:11.292Z,27.60
2018-05-31T14:54:40.340Z,26.43
2018-05-31T14:57:08.541Z,25.60
2018-05-31T14:59:37.535Z,26.70
2018-05-31T15:02:06.546Z,20.50
2018-05-31T15:04:34.778Z,23.50
2018-05-31T15:07:03.780Z,22.47
2018-05-31T15:09:32.790Z,20.00
2018-05-31T15:12:01.771Z,19.60
2018-05-31T15:14:30.751Z,17.10
2018-05-31T15:16:59.052Z,20.20
2018-05-31T15:19:27.337Z,19.53
2018-05-31T15:21:55.561Z,16.63
2018-05-31T15:24:23.842Z,22.53
2018-05-31T15:26:52.050Z,24.13
2018-05-31T15:29:20.398Z,20.77
2018-05-31T15:31:48.591Z,18.77
2018-05-31T15:34:17.593Z,22.90
2018-05-31T15:36:45.830Z,23.43
2018-05-31T15:39:14.849Z,22.93
2018-05-31T15:41:43.830Z,23.63
2018-05-31T15:44:12.846Z,20.53
2018-05-31T15:46:41.133Z,23.13
2018-05-31T15:49:09.402Z,17.80
2018-05-31T15:51:37.661Z,16.40
2018-05-31T15:54:05.945Z,19.57
2018-05-31T15:56:34.149Z,17.23
2018-05-31T15:59:02.373Z,13.53
2018-05-31T16:01:31.448Z,19.50
2018-05-31T16:03:59.642Z,15.70
2018-05-31T16:06:29.141Z,23.13
2018-05-31T16:08:58.134Z,11.83
2018-05-31T16:11:27.138Z,13.37
2018-05-31T16:13:55.359Z,14.50
2018-05-31T16:16:23.575Z,17.33
2018-05-31T16:18:52.580Z,13.60
2018-05-31T16:21:21.621Z,14.57
2018-05-31T16:23:49.830Z,12.63
2018-05-31T16:26:18.826Z,12.37
2018-05-31T16:28:47.913Z,16.10
2018-05-31T16:31:17.402Z,15.20
2018-05-31T16:33:46.425Z,16.60
2018-05-31T16:36:14.685Z,19.20
2018-05-31T16:38:43.667Z,14.13
2018-05-31T16:41:12.873Z,14.87
2018-05-31T16:43:41.854Z,15.97
2018-05-31T16:46:10.857Z,18.40
2018-05-31T16:48:40.387Z,20.00
2018-05-31T16:51:09.337Z,19.03
2018-05-31T16:53:38.327Z,19.60
2018-05-31T16:56:06.585Z,19.23
2018-05-31T16:58:34.814Z,22.80
2018-05-31T17:01:03.021Z,22.13
2018-05-31T17:03:31.265Z,21.43
2018-05-31T17:05:59.518Z,24.23
2018-05-31T17:08:27.794Z,19.07
2018-05-31T17:10:56.001Z,26.77
2018-05-31T17:13:24.244Z,22.00
2018-05-31T17:15:52.475Z,23.90
2018-05-31T17:18:20.690Z,25.57
2018-05-31T17:20:48.908Z,26.43
2018-05-31T17:23:17.122Z,26.10
2018-05-31T17:25:46.097Z,29.27
2018-05-31T17:28:14.533Z,22.33
2018-05-31T17:30:42.746Z,23.07
2018-05-31T17:33:11.050Z,23.93
2018-05-31T17:35:39.288Z,28.43
2018-05-31T17:38:07.596Z,27.57
2018-05-31T17:40:36.621Z,33.43
2018-05-31T17:43:04.827Z,27.30
2018-05-31T17:45:33.129Z,32.17
2018-05-31T17:48:02.142Z,24.33
2018-05-31T17:50:30.397Z,24.60
2018-05-31T17:52:59.385Z,20.13
2018-05-31T17:55:28.365Z,24.23
2018-05-31T17:57:56.654Z,20.13
2018-05-31T18:00:25.633Z,21.90
2018-05-31T18:02:54.666Z,23.97
2018-05-31T18:05:22.879Z,20.67
2018-05-31T18:07:51.103Z,24.53
2018-05-31T18:10:19.334Z,21.00
2018-05-31T18:12:47.637Z,19.93
2018-05-31T18:15:16.637Z,20.00
2018-05-31T18:17:44.847Z,16.27
2018-05-31T18:20:13.174Z,10.10
2018-05-31T18:22:43.079Z,10.10
2018-05-31T18:25:12.088Z,9.33
2018-05-31T18:27:41.060Z,13.17
2018-05-31T18:30:09.468Z,15.27
2018-05-31T18:32:37.688Z,14.67
2018-05-31T18:35:05.904Z,15.10
2018-05-31T18:37:34.994Z,11.80
2018-05-31T18:40:04.035Z,9.80
2018-05-31T18:42:32.976Z,11.67
2018-05-31T18:45:01.948Z,14.43
2018-05-31T18:47:30.988Z,10.90
2018-05-31T18:49:59.150Z,13.30
2018-05-31T18:52:27.369Z,15.10
2018-05-31T18:54:55.570Z,9.93
2018-05-31T18:57:24.568Z,11.33
2018-05-31T18:59:53.577Z,16.97
2018-05-31T19:02:21.775Z,8.93
2018-05-31T19:04:50.018Z,14.90
2018-05-31T19:07:18.998Z,12.33
2018-05-31T19:09:48.110Z,14.80
2018-05-31T19:12:16.354Z,11.50
2018-05-31T19:14:44.758Z,13.13
2018-05-31T19:17:13.025Z,10.10
2018-05-31T19:19:46.977Z,11.10
2018-05-31T19:22:15.191Z,12.97
2018-05-31T19:24:49.179Z,11.60
2018-05-31T19:27:17.393Z,12.07
2018-05-31T19:29:45.640Z,15.43
2018-05-31T19:32:13.877Z,15.23
2018-05-31T19:34:42.133Z,15.57
2018-05-31T19:37:13.107Z,13.67
2018-05-31T19:39:41.373Z,16.77
2018-05-31T19:42:15.233Z,16.43
2018-05-31T19:44:43.484Z,15.50
2018-05-31T19:47:11.685Z,12.70
2018-05-31T19:49:39.923Z,14.03
2018-05-31T19:52:13.897Z,19.53
2018-05-31T19:54:42.127Z,20.10
2018-05-31T19:57:11.141Z,18.27
2018-05-31T19:59:45.077Z,19.53
2018-05-31T20:02:19.256Z,17.90
2018-05-31T20:04:47.468Z,24.83
2018-05-31T20:07:15.903Z,19.70
2018-05-31T20:09:44.986Z,30.07
2018-05-31T20:12:13.224Z,23.07
2018-05-31T20:14:41.529Z,20.30
2018-05-31T20:17:10.535Z,28.17
2018-05-31T20:19:38.824Z,23.10
2018-05-31T20:22:07.984Z,29.13
2018-05-31T20:24:36.744Z,29.17
2018-05-31T20:27:04.969Z,21.30
2018-05-31T20:29:33.216Z,21.40
2018-05-31T20:32:02.231Z,21.03
2018-05-31T20:34:30.677Z,22.67
2018-05-31T20:36:58.970Z,24.00
2018-05-31T20:39:27.946Z,24.50
2018-05-31T20:41:56.270Z,24.53
2018-05-31T20:44:24.478Z,25.60
2018-05-31T20:46:52.718Z,23.60
2018-05-31T20:49:20.949Z,23.00
2018-05-31T20:51:49.933Z,31.73
2018-05-31T20:54:19.670Z,28.70
2018-05-31T20:56:48.030Z,30.10
2018-05-31T20:59:17.023Z,29.83
2018-05-31T21:01:46.018Z,31.20
2018-05-31T21:04:15.038Z,30.33
2018-05-31T21:06:43.249Z,29.70
2018-05-31T21:09:12.994Z,34.30
2018-05-31T21:11:42.014Z,28.27
2018-05-31T21:14:11.097Z,27.93
2018-05-31T21:16:39.297Z,29.60
2018-05-31T21:19:07.537Z,33.13
2018-05-31T21:21:35.952Z,28.90
2018-05-31T21:24:04.186Z,29.50
2018-05-31T21:26:32.632Z,28.67
2018-05-31T21:29:00.847Z,36.10
2018-05-31T21:31:29.103Z,30.13
2018-05-31T21:33:58.106Z,32.33
2018-05-31T21:36:26.376Z,33.27
2018-05-31T21:38:55.362Z,33.33
2018-05-31T21:41:24.365Z,31.87
2018-05-31T21:43:53.354Z,36.30
2018-05-31T21:46:21.645Z,35.40
2018-05-31T21:48:49.870Z,36.40
2018-05-31T21:51:18.097Z,30.80
2018-05-31T21:53:46.338Z,33.70
2018-05-31T21:56:15.313Z,33.67
2018-05-31T21:58:43.548Z,35.70
2018-05-31T22:01:11.779Z,37.73
2018-05-31T22:03:40.768Z,37.90
2018-05-31T22:06:09.753Z,38.27
2018-05-31T22:08:38.760Z,36.73
2018-05-31T22:11:07.723Z,37.23
2018-05-31T22:13:35.936Z,36.90
2018-05-31T22:16:04.318Z,37.73
2018-05-31T22:18:32.538Z,35.97
2018-05-31T22:21:00.785Z,39.70
2018-05-31T22:23:28.990Z,36.93
2018-05-31T22:25:58.729Z,39.53
2018-05-31T22:28:27.833Z,37.40
2018-05-31T22:30:56.068Z,38.10
2018-05-31T22:33:25.061Z,39.70
2018-05-31T22:35:53.366Z,39.90
2018-05-31T22:38:22.434Z,39.97
2018-05-31T22:40:50.662Z,45.00
2018-05-31T22:43:18.962Z,38.00
2018-05-31T22:45:47.203Z,40.63
2018-05-31T22:48:15.442Z,40.10
2018-05-31T22:50:44.479Z,47.83
2018-05-31T22:53:12.724Z,42.97
2018-05-31T22:55:41.717Z,45.87
2018-05-31T22:58:09.942Z,45.93
2018-05-31T23:00:38.165Z,46.40
2018-05-31T23:03:06.437Z,48.90
2018-05-31T23:05:34.694Z,41.73
2018-05-31T23:08:03.707Z,43.20
2018-05-31T23:10:31.986Z,43.83
2018-05-31T23:13:00.199Z,49.03
2018-05-31T23:15:28.522Z,48.20
2018-05-31T23:17:57.514Z,47.77
2018-05-31T23:20:26.629Z,51.73
2018-05-31T23:22:54.858Z,48.33
2018-05-31T23:25:23.159Z,49.57
2018-05-31T23:27:52.147Z,47.17
2018-05-31T23:30:21.326Z,50.43
2018-05-31T23:32:49.622Z,47.00
2018-05-31T23:35:18.625Z,60.93
2018-05-31T23:37:46.841Z,56.43
2018-05-31T23:40:15.072Z,54.33
2018-05-31T23:42:43.311Z,53.20
2018-05-31T23:45:13.009Z,55.90
2018-05-31T23:47:41.230Z,57.03
2018-05-31T23:50:09.505Z,61.03
2018-05-31T23:52:37.722Z,58.40
2018-05-31T23:55:05.959Z,49.63
2018-05-31T23:57:34.265Z,51.30
